sensor_id;sensor_type;location;lat;lon;timestamp;P1;durP1;ratioP1;P2;durP2;ratioP2
13197;SDS011;6664;52.514;13.440;2022-11-14T00:00:56;40.13;;;19.80;;
13197;SDS011;6664;52.514;13.440;2022-11-14T00:03:41;46.63;;;20.40;;
13197;SDS011;6664;52.514;13.440;2022-11-14T00:06:27;32.90;;;18.67;;
13197;SDS011;6664;52.514;13.440;2022-11-14T00:09:12;37.00;;;19.90;;
13197;SDS011;6664;52.514;13.440;2022-11-14T00:11:57;41.43;;;19.93;;
13197;SDS011;6664;52.514;13.440;2022-11-14T00:14:43;37.60;;;20.90;;
13197;SDS011;6664;52.514;13.440;2022-11-14T00:17:29;41.27;;;21.07;;
13197;SDS011;6664;52.514;13.440;2022-11-14T00:20:15;37.30;;;19.10;;
13197;SDS011;6664;52.514;13.440;2022-11-14T00:23:00;41.47;;;19.93;;
13197;SDS011;6664;52.514;13.440;2022-11-14T00:25:46;41.17;;;20.37;;
13197;SDS011;6664;52.514;13.440;2022-11-14T00:28:32;42.77;;;20.77;;
13197;SDS011;6664;52.514;13.440;2022-11-14T00:31:20;54.33;;;23.37;;
13197;SDS011;6664;52.514;13.440;2022-11-14T00:34:05;44.20;;;22.03;;
13197;SDS011;6664;52.514;13.440;2022-11-14T00:36:53;41.23;;;21.00;;
13197;SDS011;6664;52.514;13.440;2022-11-14T00:39:39;40.03;;;19.90;;
13197;SDS011;6664;52.514;13.440;2022-11-14T00:42:24;47.63;;;20.73;;
13197;SDS011;6664;52.514;13.440;2022-11-14T00:45:10;45.73;;;22.23;;
13197;SDS011;6664;52.514;13.440;2022-11-14T00:47:55;52.30;;;21.50;;
13197;SDS011;6664;52.514;13.440;2022-11-14T00:50:44;33.70;;;18.70;;
13197;SDS011;6664;52.514;13.440;2022-11-14T00:53:29;44.00;;;19.43;;
13197;SDS011;6664;52.514;13.440;2022-11-14T00:56:15;40.47;;;20.23;;
13197;SDS011;6664;52.514;13.440;2022-11-14T00:59:00;43.40;;;20.73;;
13197;SDS011;6664;52.514;13.440;2022-11-14T01:01:48;39.03;;;20.90;;
13197;SDS011;6664;52.514;13.440;2022-11-14T01:04:39;40.60;;;20.23;;
13197;SDS011;6664;52.514;13.440;2022-11-14T01:07:28;47.97;;;22.90;;
13197;SDS011;6664;52.514;13.440;2022-11-14T01:10:14;49.90;;;21.57;;
13197;SDS011;6664;52.514;13.440;2022-11-14T01:13:00;42.03;;;21.80;;
13197;SDS011;6664;52.514;13.440;2022-11-14T01:15:48;52.07;;;22.17;;
13197;SDS011;6664;52.514;13.440;2022-11-14T01:18:34;51.13;;;22.90;;
13197;SDS011;6664;52.514;13.440;2022-11-14T01:21:22;43.90;;;20.77;;
13197;SDS011;6664;52.514;13.440;2022-11-14T01:24:08;52.57;;;22.83;;
13197;SDS011;6664;52.514;13.440;2022-11-14T01:26:55;67.23;;;26.33;;
13197;SDS011;6664;52.514;13.440;2022-11-14T01:29:42;50.57;;;22.20;;
13197;SDS011;6664;52.514;13.440;2022-11-14T01:32:28;57.73;;;23.77;;
13197;SDS011;6664;52.514;13.440;2022-11-14T01:35:14;57.70;;;23.27;;
13197;SDS011;6664;52.514;13.440;2022-11-14T01:37:59;57.10;;;24.43;;
13197;SDS011;6664;52.514;13.440;2022-11-14T01:40:45;46.43;;;21.00;;
13197;SDS011;6664;52.514;13.440;2022-11-14T01:43:35;61.13;;;24.10;;
13197;SDS011;6664;52.514;13.440;2022-11-14T01:52:24;53.93;;;22.50;;
13197;SDS011;6664;52.514;13.440;2022-11-14T01:55:18;48.10;;;20.93;;
13197;SDS011;6664;52.514;13.440;2022-11-14T01:58:03;52.80;;;23.60;;
13197;SDS011;6664;52.514;13.440;2022-11-14T02:00:51;51.73;;;23.77;;
13197;SDS011;6664;52.514;13.440;2022-11-14T02:03:39;52.27;;;24.37;;
13197;SDS011;6664;52.514;13.440;2022-11-14T02:06:28;63.53;;;24.63;;
13197;SDS011;6664;52.514;13.440;2022-11-14T02:09:17;63.90;;;26.57;;
13197;SDS011;6664;52.514;13.440;2022-11-14T02:12:03;63.47;;;23.83;;
13197;SDS011;6664;52.514;13.440;2022-11-14T02:14:51;49.80;;;22.80;;
13197;SDS011;6664;52.514;13.440;2022-11-14T02:17:40;61.80;;;25.20;;
13197;SDS011;6664;52.514;13.440;2022-11-14T02:20:27;56.20;;;25.10;;
13197;SDS011;6664;52.514;13.440;2022-11-14T02:23:27;47.10;;;21.80;;
13197;SDS011;6664;52.514;13.440;2022-11-14T02:26:18;52.30;;;22.37;;
13197;SDS011;6664;52.514;13.440;2022-11-14T02:29:08;54.17;;;24.07;;
13197;SDS011;6664;52.514;13.440;2022-11-14T02:31:55;53.60;;;21.37;;
13197;SDS011;6664;52.514;13.440;2022-11-14T02:34:42;50.43;;;22.07;;
13197;SDS011;6664;52.514;13.440;2022-11-14T02:37:30;40.60;;;19.83;;
13197;SDS011;6664;52.514;13.440;2022-11-14T02:40:15;55.37;;;21.67;;
13197;SDS011;6664;52.514;13.440;2022-11-14T02:43:01;49.40;;;22.80;;
13197;SDS011;6664;52.514;13.440;2022-11-14T02:45:52;44.20;;;20.83;;
13197;SDS011;6664;52.514;13.440;2022-11-14T02:48:37;54.00;;;23.37;;
13197;SDS011;6664;52.514;13.440;2022-11-14T02:51:23;50.00;;;22.63;;
13197;SDS011;6664;52.514;13.440;2022-11-14T02:54:10;53.90;;;21.57;;
13197;SDS011;6664;52.514;13.440;2022-11-14T02:56:56;47.17;;;19.97;;
13197;SDS011;6664;52.514;13.440;2022-11-14T02:59:42;45.17;;;20.43;;
13197;SDS011;6664;52.514;13.440;2022-11-14T03:02:30;49.50;;;21.13;;
13197;SDS011;6664;52.514;13.440;2022-11-14T03:05:16;48.97;;;22.80;;
13197;SDS011;6664;52.514;13.440;2022-11-14T03:08:01;42.83;;;20.43;;
13197;SDS011;6664;52.514;13.440;2022-11-14T03:10:47;58.53;;;24.20;;
13197;SDS011;6664;52.514;13.440;2022-11-14T03:13:34;55.33;;;23.30;;
13197;SDS011;6664;52.514;13.440;2022-11-14T03:16:20;56.57;;;22.27;;
13197;SDS011;6664;52.514;13.440;2022-11-14T03:19:08;48.63;;;22.20;;
13197;SDS011;6664;52.514;13.440;2022-11-14T03:21:54;45.13;;;20.43;;
13197;SDS011;6664;52.514;13.440;2022-11-14T03:24:39;55.93;;;22.50;;
13197;SDS011;6664;52.514;13.440;2022-11-14T03:27:25;53.03;;;23.37;;
13197;SDS011;6664;52.514;13.440;2022-11-14T03:30:11;50.60;;;19.83;;
13197;SDS011;6664;52.514;13.440;2022-11-14T03:32:58;52.13;;;22.30;;
13197;SDS011;6664;52.514;13.440;2022-11-14T03:35:44;50.07;;;22.27;;
13197;SDS011;6664;52.514;13.440;2022-11-14T03:38:29;47.93;;;21.70;;
13197;SDS011;6664;52.514;13.440;2022-11-14T03:41:16;48.00;;;22.30;;
13197;SDS011;6664;52.514;13.440;2022-11-14T03:44:02;49.33;;;21.47;;
13197;SDS011;6664;52.514;13.440;2022-11-14T03:46:48;46.07;;;20.90;;
13197;SDS011;6664;52.514;13.440;2022-11-14T03:49:34;53.73;;;22.10;;
13197;SDS011;6664;52.514;13.440;2022-11-14T03:52:20;49.67;;;20.53;;
13197;SDS011;6664;52.514;13.440;2022-11-14T03:55:05;44.30;;;21.90;;
13197;SDS011;6664;52.514;13.440;2022-11-14T03:57:51;49.80;;;21.70;;
13197;SDS011;6664;52.514;13.440;2022-11-14T04:00:37;46.93;;;20.00;;
13197;SDS011;6664;52.514;13.440;2022-11-14T04:03:22;51.80;;;21.07;;
13197;SDS011;6664;52.514;13.440;2022-11-14T04:06:08;64.57;;;23.27;;
13197;SDS011;6664;52.514;13.440;2022-11-14T04:08:54;54.27;;;23.70;;
13197;SDS011;6664;52.514;13.440;2022-11-14T04:11:40;59.03;;;22.93;;
13197;SDS011;6664;52.514;13.440;2022-11-14T04:14:28;43.60;;;21.23;;
13197;SDS011;6664;52.514;13.440;2022-11-14T04:17:14;52.37;;;23.67;;
13197;SDS011;6664;52.514;13.440;2022-11-14T04:20:02;52.67;;;21.80;;
13197;SDS011;6664;52.514;13.440;2022-11-14T04:22:47;56.33;;;22.13;;
13197;SDS011;6664;52.514;13.440;2022-11-14T04:25:32;48.27;;;20.80;;
13197;SDS011;6664;52.514;13.440;2022-11-14T04:28:20;70.60;;;25.03;;
13197;SDS011;6664;52.514;13.440;2022-11-14T04:31:05;53.43;;;23.53;;
13197;SDS011;6664;52.514;13.440;2022-11-14T04:33:50;61.43;;;21.70;;
13197;SDS011;6664;52.514;13.440;2022-11-14T04:36:41;53.87;;;22.83;;
13197;SDS011;6664;52.514;13.440;2022-11-14T04:39:29;59.47;;;23.20;;
13197;SDS011;6664;52.514;13.440;2022-11-14T04:42:18;52.20;;;21.87;;
13197;SDS011;6664;52.514;13.440;2022-11-14T04:45:09;56.63;;;22.47;;
13197;SDS011;6664;52.514;13.440;2022-11-14T04:47:55;60.50;;;22.87;;
13197;SDS011;6664;52.514;13.440;2022-11-14T04:50:43;50.03;;;22.50;;
13197;SDS011;6664;52.514;13.440;2022-11-14T04:53:32;59.33;;;22.17;;
13197;SDS011;6664;52.514;13.440;2022-11-14T04:56:19;54.83;;;22.17;;
13197;SDS011;6664;52.514;13.440;2022-11-14T04:59:09;52.97;;;21.40;;
13197;SDS011;6664;52.514;13.440;2022-11-14T05:01:54;50.30;;;21.53;;
13197;SDS011;6664;52.514;13.440;2022-11-14T05:04:41;52.53;;;21.77;;
13197;SDS011;6664;52.514;13.440;2022-11-14T05:07:33;53.10;;;22.57;;
13197;SDS011;6664;52.514;13.440;2022-11-14T05:10:19;49.23;;;23.20;;
13197;SDS011;6664;52.514;13.440;2022-11-14T05:13:04;52.27;;;21.53;;
13197;SDS011;6664;52.514;13.440;2022-11-14T05:15:50;44.37;;;19.90;;
13197;SDS011;6664;52.514;13.440;2022-11-14T05:18:36;54.37;;;20.23;;
13197;SDS011;6664;52.514;13.440;2022-11-14T05:21:28;57.27;;;22.30;;
13197;SDS011;6664;52.514;13.440;2022-11-14T05:24:16;55.43;;;22.30;;
13197;SDS011;6664;52.514;13.440;2022-11-14T05:27:03;55.40;;;20.70;;
13197;SDS011;6664;52.514;13.440;2022-11-14T05:29:51;47.33;;;21.40;;
13197;SDS011;6664;52.514;13.440;2022-11-14T05:32:36;58.10;;;23.43;;
13197;SDS011;6664;52.514;13.440;2022-11-14T05:35:24;52.87;;;22.00;;
13197;SDS011;6664;52.514;13.440;2022-11-14T05:38:09;56.27;;;21.40;;
13197;SDS011;6664;52.514;13.440;2022-11-14T05:40:55;51.93;;;22.13;;
13197;SDS011;6664;52.514;13.440;2022-11-14T05:43:40;51.40;;;21.07;;
13197;SDS011;6664;52.514;13.440;2022-11-14T05:46:26;48.03;;;20.27;;
13197;SDS011;6664;52.514;13.440;2022-11-14T05:49:13;51.67;;;20.40;;
13197;SDS011;6664;52.514;13.440;2022-11-14T05:52:05;42.37;;;20.60;;
13197;SDS011;6664;52.514;13.440;2022-11-14T05:54:52;55.00;;;21.10;;
13197;SDS011;6664;52.514;13.440;2022-11-14T05:57:38;53.57;;;21.10;;
13197;SDS011;6664;52.514;13.440;2022-11-14T06:00:23;52.13;;;21.80;;
13197;SDS011;6664;52.514;13.440;2022-11-14T06:03:11;46.30;;;21.43;;
13197;SDS011;6664;52.514;13.440;2022-11-14T06:06:00;51.00;;;20.87;;
13197;SDS011;6664;52.514;13.440;2022-11-14T06:08:49;47.50;;;20.43;;
13197;SDS011;6664;52.514;13.440;2022-11-14T06:11:34;66.03;;;21.77;;
13197;SDS011;6664;52.514;13.440;2022-11-14T06:14:20;53.80;;;23.03;;
13197;SDS011;6664;52.514;13.440;2022-11-14T06:17:05;72.60;;;21.23;;
13197;SDS011;6664;52.514;13.440;2022-11-14T06:19:51;46.73;;;21.83;;
13197;SDS011;6664;52.514;13.440;2022-11-14T06:22:36;50.50;;;19.83;;
13197;SDS011;6664;52.514;13.440;2022-11-14T06:25:24;47.77;;;22.40;;
13197;SDS011;6664;52.514;13.440;2022-11-14T06:28:09;53.03;;;21.47;;
13197;SDS011;6664;52.514;13.440;2022-11-14T06:30:58;50.37;;;20.03;;
13197;SDS011;6664;52.514;13.440;2022-11-14T06:33:47;50.23;;;20.57;;
13197;SDS011;6664;52.514;13.440;2022-11-14T06:36:35;55.53;;;21.33;;
13197;SDS011;6664;52.514;13.440;2022-11-14T06:39:23;51.67;;;19.03;;
13197;SDS011;6664;52.514;13.440;2022-11-14T06:42:09;51.80;;;20.80;;
13197;SDS011;6664;52.514;13.440;2022-11-14T06:44:54;57.60;;;20.87;;
13197;SDS011;6664;52.514;13.440;2022-11-14T06:47:44;55.70;;;21.33;;
13197;SDS011;6664;52.514;13.440;2022-11-14T06:50:29;48.80;;;21.80;;
13197;SDS011;6664;52.514;13.440;2022-11-14T06:53:15;62.87;;;22.33;;
13197;SDS011;6664;52.514;13.440;2022-11-14T06:56:02;51.87;;;19.90;;
13197;SDS011;6664;52.514;13.440;2022-11-14T06:58:49;54.93;;;21.37;;
13197;SDS011;6664;52.514;13.440;2022-11-14T07:01:34;51.50;;;19.90;;
13197;SDS011;6664;52.514;13.440;2022-11-14T07:04:22;46.40;;;20.73;;
13197;SDS011;6664;52.514;13.440;2022-11-14T07:07:08;54.33;;;21.40;;
13197;SDS011;6664;52.514;13.440;2022-11-14T07:09:55;48.80;;;21.27;;
13197;SDS011;6664;52.514;13.440;2022-11-14T07:12:42;42.83;;;20.20;;
13197;SDS011;6664;52.514;13.440;2022-11-14T07:15:28;49.30;;;21.07;;
13197;SDS011;6664;52.514;13.440;2022-11-14T07:18:13;51.73;;;20.17;;
13197;SDS011;6664;52.514;13.440;2022-11-14T07:21:03;50.57;;;19.30;;
13197;SDS011;6664;52.514;13.440;2022-11-14T07:23:49;56.33;;;20.90;;
13197;SDS011;6664;52.514;13.440;2022-11-14T07:26:35;52.00;;;21.53;;
13197;SDS011;6664;52.514;13.440;2022-11-14T07:29:20;48.00;;;19.80;;
13197;SDS011;6664;52.514;13.440;2022-11-14T07:32:06;46.47;;;20.30;;
13197;SDS011;6664;52.514;13.440;2022-11-14T07:34:52;54.90;;;20.30;;
13197;SDS011;6664;52.514;13.440;2022-11-14T07:37:45;48.20;;;19.63;;
13197;SDS011;6664;52.514;13.440;2022-11-14T07:40:31;60.90;;;22.50;;
13197;SDS011;6664;52.514;13.440;2022-11-14T07:43:16;51.63;;;21.60;;
13197;SDS011;6664;52.514;13.440;2022-11-14T07:46:12;49.87;;;20.50;;
13197;SDS011;6664;52.514;13.440;2022-11-14T07:48:59;51.90;;;21.07;;
13197;SDS011;6664;52.514;13.440;2022-11-14T07:51:45;55.17;;;20.57;;
13197;SDS011;6664;52.514;13.440;2022-11-14T07:54:30;48.63;;;21.23;;
13197;SDS011;6664;52.514;13.440;2022-11-14T07:57:20;42.00;;;19.33;;
13197;SDS011;6664;52.514;13.440;2022-11-14T08:00:06;45.60;;;21.30;;
13197;SDS011;6664;52.514;13.440;2022-11-14T08:02:52;50.97;;;21.23;;
13197;SDS011;6664;52.514;13.440;2022-11-14T08:05:38;54.30;;;20.50;;
13197;SDS011;6664;52.514;13.440;2022-11-14T08:08:24;47.73;;;20.47;;
13197;SDS011;6664;52.514;13.440;2022-11-14T08:11:10;41.10;;;19.77;;
13197;SDS011;6664;52.514;13.440;2022-11-14T08:14:18;53.60;;;21.33;;
13197;SDS011;6664;52.514;13.440;2022-11-14T08:17:03;55.33;;;21.40;;
13197;SDS011;6664;52.514;13.440;2022-11-14T08:19:52;59.70;;;21.63;;
13197;SDS011;6664;52.514;13.440;2022-11-14T08:22:39;48.83;;;19.43;;
13197;SDS011;6664;52.514;13.440;2022-11-14T08:25:25;49.83;;;21.10;;
13197;SDS011;6664;52.514;13.440;2022-11-14T08:28:11;44.60;;;18.60;;
13197;SDS011;6664;52.514;13.440;2022-11-14T08:31:02;41.00;;;18.93;;
13197;SDS011;6664;52.514;13.440;2022-11-14T08:33:50;70.87;;;20.13;;
13197;SDS011;6664;52.514;13.440;2022-11-14T08:36:36;49.63;;;19.47;;
13197;SDS011;6664;52.514;13.440;2022-11-14T08:39:22;43.70;;;18.60;;
13197;SDS011;6664;52.514;13.440;2022-11-14T08:42:07;44.37;;;18.77;;
13197;SDS011;6664;52.514;13.440;2022-11-14T08:44:53;51.07;;;20.17;;
13197;SDS011;6664;52.514;13.440;2022-11-14T08:47:38;55.27;;;19.47;;
13197;SDS011;6664;52.514;13.440;2022-11-14T08:50:23;50.57;;;18.80;;
13197;SDS011;6664;52.514;13.440;2022-11-14T08:53:09;47.60;;;17.97;;
13197;SDS011;6664;52.514;13.440;2022-11-14T08:55:56;48.47;;;19.07;;
13197;SDS011;6664;52.514;13.440;2022-11-14T08:58:44;45.53;;;18.37;;
13197;SDS011;6664;52.514;13.440;2022-11-14T09:01:32;46.20;;;17.97;;
13197;SDS011;6664;52.514;13.440;2022-11-14T09:04:20;52.47;;;19.63;;
13197;SDS011;6664;52.514;13.440;2022-11-14T09:07:05;40.43;;;17.23;;
13197;SDS011;6664;52.514;13.440;2022-11-14T09:09:51;45.00;;;18.30;;
13197;SDS011;6664;52.514;13.440;2022-11-14T09:12:37;48.57;;;19.63;;
13197;SDS011;6664;52.514;13.440;2022-11-14T09:15:24;51.33;;;18.50;;
13197;SDS011;6664;52.514;13.440;2022-11-14T09:18:14;45.03;;;19.07;;
13197;SDS011;6664;52.514;13.440;2022-11-14T09:21:04;40.43;;;17.67;;
13197;SDS011;6664;52.514;13.440;2022-11-14T09:23:51;39.53;;;15.60;;
13197;SDS011;6664;52.514;13.440;2022-11-14T09:26:44;37.97;;;15.50;;
13197;SDS011;6664;52.514;13.440;2022-11-14T09:29:32;42.17;;;17.53;;
13197;SDS011;6664;52.514;13.440;2022-11-14T09:32:20;43.60;;;19.10;;
13197;SDS011;6664;52.514;13.440;2022-11-14T09:35:09;39.23;;;16.50;;
13197;SDS011;6664;52.514;13.440;2022-11-14T09:38:06;44.40;;;19.20;;
13197;SDS011;6664;52.514;13.440;2022-11-14T09:41:07;47.53;;;17.83;;
13197;SDS011;6664;52.514;13.440;2022-11-14T09:46:54;32.50;;;15.80;;
13197;SDS011;6664;52.514;13.440;2022-11-14T09:49:45;42.23;;;16.13;;
13197;SDS011;6664;52.514;13.440;2022-11-14T09:52:38;38.73;;;16.30;;
13197;SDS011;6664;52.514;13.440;2022-11-14T09:55:31;32.97;;;15.50;;
13197;SDS011;6664;52.514;13.440;2022-11-14T09:58:23;38.00;;;17.10;;
13197;SDS011;6664;52.514;13.440;2022-11-14T10:11:04;33.07;;;15.43;;
13197;SDS011;6664;52.514;13.440;2022-11-14T10:36:06;31.17;;;15.87;;
13197;SDS011;6664;52.514;13.440;2022-11-14T10:42:10;34.83;;;14.90;;
13197;SDS011;6664;52.514;13.440;2022-11-14T10:48:12;30.50;;;15.10;;
13197;SDS011;6664;52.514;13.440;2022-11-14T10:57:29;38.17;;;15.80;;
13197;SDS011;6664;52.514;13.440;2022-11-14T11:00:20;40.93;;;16.77;;
13197;SDS011;6664;52.514;13.440;2022-11-14T11:03:07;33.30;;;14.90;;
13197;SDS011;6664;52.514;13.440;2022-11-14T11:05:53;27.57;;;13.63;;
13197;SDS011;6664;52.514;13.440;2022-11-14T11:08:41;31.53;;;14.20;;
13197;SDS011;6664;52.514;13.440;2022-11-14T11:11:54;34.30;;;15.40;;
13197;SDS011;6664;52.514;13.440;2022-11-14T11:14:42;45.40;;;16.80;;
13197;SDS011;6664;52.514;13.440;2022-11-14T11:17:32;32.37;;;15.20;;
13197;SDS011;6664;52.514;13.440;2022-11-14T11:20:34;31.00;;;15.03;;
13197;SDS011;6664;52.514;13.440;2022-11-14T11:23:23;28.17;;;13.90;;
13197;SDS011;6664;52.514;13.440;2022-11-14T11:26:29;38.30;;;16.47;;
13197;SDS011;6664;52.514;13.440;2022-11-14T11:29:18;30.33;;;14.63;;
13197;SDS011;6664;52.514;13.440;2022-11-14T11:32:04;28.77;;;15.20;;
13197;SDS011;6664;52.514;13.440;2022-11-14T11:34:51;28.80;;;15.73;;
13197;SDS011;6664;52.514;13.440;2022-11-14T11:37:43;36.53;;;15.97;;
13197;SDS011;6664;52.514;13.440;2022-11-14T11:40:38;34.50;;;15.13;;
13197;SDS011;6664;52.514;13.440;2022-11-14T11:46:57;31.53;;;14.37;;
13197;SDS011;6664;52.514;13.440;2022-11-14T11:49:46;32.73;;;14.67;;
13197;SDS011;6664;52.514;13.440;2022-11-14T11:52:54;28.13;;;15.00;;
13197;SDS011;6664;52.514;13.440;2022-11-14T11:56:06;25.80;;;13.17;;
13197;SDS011;6664;52.514;13.440;2022-11-14T11:59:40;30.30;;;13.70;;
13197;SDS011;6664;52.514;13.440;2022-11-14T12:02:23;33.20;;;14.60;;
13197;SDS011;6664;52.514;13.440;2022-11-14T12:05:14;27.90;;;13.80;;
13197;SDS011;6664;52.514;13.440;2022-11-14T12:08:03;26.43;;;13.40;;
13197;SDS011;6664;52.514;13.440;2022-11-14T12:11:05;27.40;;;13.10;;
13197;SDS011;6664;52.514;13.440;2022-11-14T12:33:03;26.73;;;11.33;;
13197;SDS011;6664;52.514;13.440;2022-11-14T12:36:07;27.97;;;11.93;;
13197;SDS011;6664;52.514;13.440;2022-11-14T12:38:55;20.77;;;12.30;;
13197;SDS011;6664;52.514;13.440;2022-11-14T12:41:44;22.83;;;12.63;;
13197;SDS011;6664;52.514;13.440;2022-11-14T12:44:32;24.03;;;13.70;;
13197;SDS011;6664;52.514;13.440;2022-11-14T12:47:20;23.37;;;11.77;;
13197;SDS011;6664;52.514;13.440;2022-11-14T12:50:38;16.87;;;10.03;;
13197;SDS011;6664;52.514;13.440;2022-11-14T12:59:20;22.53;;;11.60;;
13197;SDS011;6664;52.514;13.440;2022-11-14T13:02:36;18.80;;;11.23;;
13197;SDS011;6664;52.514;13.440;2022-11-14T13:11:55;17.87;;;9.77;;
13197;SDS011;6664;52.514;13.440;2022-11-14T13:15:00;19.70;;;10.40;;
13197;SDS011;6664;52.514;13.440;2022-11-14T13:18:34;18.80;;;11.30;;
13197;SDS011;6664;52.514;13.440;2022-11-14T13:21:38;19.60;;;10.07;;
13197;SDS011;6664;52.514;13.440;2022-11-14T13:27:47;18.60;;;10.83;;
13197;SDS011;6664;52.514;13.440;2022-11-14T13:46:54;23.03;;;11.63;;
13197;SDS011;6664;52.514;13.440;2022-11-14T13:52:46;22.13;;;10.57;;
13197;SDS011;6664;52.514;13.440;2022-11-14T14:11:38;22.80;;;10.30;;
13197;SDS011;6664;52.514;13.440;2022-11-14T14:17:26;13.57;;;9.27;;
13197;SDS011;6664;52.514;13.440;2022-11-14T14:20:53;20.10;;;9.70;;
13197;SDS011;6664;52.514;13.440;2022-11-14T14:27:31;15.97;;;9.83;;
13197;SDS011;6664;52.514;13.440;2022-11-14T14:30:25;21.27;;;10.30;;
13197;SDS011;6664;52.514;13.440;2022-11-14T14:33:13;17.17;;;10.80;;
13197;SDS011;6664;52.514;13.440;2022-11-14T14:36:01;15.20;;;9.40;;
13197;SDS011;6664;52.514;13.440;2022-11-14T14:38:47;14.43;;;9.97;;
13197;SDS011;6664;52.514;13.440;2022-11-14T14:41:33;17.77;;;9.97;;
13197;SDS011;6664;52.514;13.440;2022-11-14T14:44:26;17.10;;;10.30;;
13197;SDS011;6664;52.514;13.440;2022-11-14T14:53:16;19.80;;;11.50;;
13197;SDS011;6664;52.514;13.440;2022-11-14T14:56:16;15.87;;;10.83;;
13197;SDS011;6664;52.514;13.440;2022-11-14T14:59:17;17.67;;;10.30;;
13197;SDS011;6664;52.514;13.440;2022-11-14T15:02:08;18.33;;;10.87;;
13197;SDS011;6664;52.514;13.440;2022-11-14T15:05:03;16.20;;;9.90;;
13197;SDS011;6664;52.514;13.440;2022-11-14T15:07:52;16.97;;;10.63;;
13197;SDS011;6664;52.514;13.440;2022-11-14T15:10:43;17.97;;;10.90;;
13197;SDS011;6664;52.514;13.440;2022-11-14T15:13:29;14.60;;;9.77;;
13197;SDS011;6664;52.514;13.440;2022-11-14T15:16:16;19.00;;;11.33;;
13197;SDS011;6664;52.514;13.440;2022-11-14T15:19:02;19.93;;;11.13;;
13197;SDS011;6664;52.514;13.440;2022-11-14T15:22:00;23.93;;;11.20;;
13197;SDS011;6664;52.514;13.440;2022-11-14T15:25:14;23.20;;;11.80;;
13197;SDS011;6664;52.514;13.440;2022-11-14T15:28:11;25.90;;;12.30;;
13197;SDS011;6664;52.514;13.440;2022-11-14T15:31:01;27.47;;;14.60;;
13197;SDS011;6664;52.514;13.440;2022-11-14T15:34:03;24.20;;;13.63;;
13197;SDS011;6664;52.514;13.440;2022-11-14T15:40:17;31.40;;;13.80;;
13197;SDS011;6664;52.514;13.440;2022-11-14T15:46:39;21.33;;;11.83;;
13197;SDS011;6664;52.514;13.440;2022-11-14T15:49:28;24.93;;;14.50;;
13197;SDS011;6664;52.514;13.440;2022-11-14T15:52:23;22.67;;;13.13;;
13197;SDS011;6664;52.514;13.440;2022-11-14T15:55:16;22.37;;;12.73;;
13197;SDS011;6664;52.514;13.440;2022-11-14T15:58:06;29.53;;;13.70;;
13197;SDS011;6664;52.514;13.440;2022-11-14T16:01:22;21.70;;;12.63;;
13197;SDS011;6664;52.514;13.440;2022-11-14T16:04:16;21.87;;;13.63;;
13197;SDS011;6664;52.514;13.440;2022-11-14T16:07:08;25.97;;;12.03;;
13197;SDS011;6664;52.514;13.440;2022-11-14T16:09:56;21.30;;;12.60;;
13197;SDS011;6664;52.514;13.440;2022-11-14T16:12:42;21.73;;;13.47;;
13197;SDS011;6664;52.514;13.440;2022-11-14T16:15:34;23.00;;;13.80;;
13197;SDS011;6664;52.514;13.440;2022-11-14T16:18:20;23.57;;;11.77;;
13197;SDS011;6664;52.514;13.440;2022-11-14T16:21:08;20.80;;;13.00;;
13197;SDS011;6664;52.514;13.440;2022-11-14T16:23:59;25.63;;;13.80;;
13197;SDS011;6664;52.514;13.440;2022-11-14T16:26:48;24.97;;;11.77;;
13197;SDS011;6664;52.514;13.440;2022-11-14T16:29:33;27.97;;;14.00;;
13197;SDS011;6664;52.514;13.440;2022-11-14T16:32:21;28.50;;;14.10;;
13197;SDS011;6664;52.514;13.440;2022-11-14T16:35:20;27.70;;;13.23;;
13197;SDS011;6664;52.514;13.440;2022-11-14T16:38:08;20.47;;;11.77;;
13197;SDS011;6664;52.514;13.440;2022-11-14T16:40:57;22.90;;;13.07;;
13197;SDS011;6664;52.514;13.440;2022-11-14T16:43:44;23.07;;;13.03;;
13197;SDS011;6664;52.514;13.440;2022-11-14T16:46:33;21.97;;;12.57;;
13197;SDS011;6664;52.514;13.440;2022-11-14T16:49:19;23.43;;;13.80;;
13197;SDS011;6664;52.514;13.440;2022-11-14T16:52:09;21.67;;;14.83;;
13197;SDS011;6664;52.514;13.440;2022-11-14T16:54:58;27.20;;;14.70;;
13197;SDS011;6664;52.514;13.440;2022-11-14T16:57:44;20.07;;;12.80;;
13197;SDS011;6664;52.514;13.440;2022-11-14T17:00:29;32.00;;;15.03;;
13197;SDS011;6664;52.514;13.440;2022-11-14T17:03:15;28.83;;;13.93;;
13197;SDS011;6664;52.514;13.440;2022-11-14T17:06:06;24.60;;;12.27;;
13197;SDS011;6664;52.514;13.440;2022-11-14T17:08:54;25.07;;;14.10;;
13197;SDS011;6664;52.514;13.440;2022-11-14T17:11:43;22.70;;;13.00;;
13197;SDS011;6664;52.514;13.440;2022-11-14T17:14:28;21.97;;;13.60;;
13197;SDS011;6664;52.514;13.440;2022-11-14T17:17:14;22.43;;;13.20;;
13197;SDS011;6664;52.514;13.440;2022-11-14T17:20:02;24.70;;;14.50;;
13197;SDS011;6664;52.514;13.440;2022-11-14T17:22:49;27.67;;;13.00;;
13197;SDS011;6664;52.514;13.440;2022-11-14T17:25:35;22.60;;;13.47;;
13197;SDS011;6664;52.514;13.440;2022-11-14T17:28:20;21.20;;;12.80;;
13197;SDS011;6664;52.514;13.440;2022-11-14T17:31:08;28.00;;;14.33;;
13197;SDS011;6664;52.514;13.440;2022-11-14T17:33:55;25.63;;;13.90;;
13197;SDS011;6664;52.514;13.440;2022-11-14T17:36:41;24.07;;;14.97;;
13197;SDS011;6664;52.514;13.440;2022-11-14T17:39:26;24.03;;;13.90;;
13197;SDS011;6664;52.514;13.440;2022-11-14T17:42:14;24.33;;;14.10;;
13197;SDS011;6664;52.514;13.440;2022-11-14T17:45:01;28.00;;;14.80;;
13197;SDS011;6664;52.514;13.440;2022-11-14T17:47:46;27.60;;;13.60;;
13197;SDS011;6664;52.514;13.440;2022-11-14T17:50:31;24.17;;;13.93;;
13197;SDS011;6664;52.514;13.440;2022-11-14T17:53:21;21.50;;;13.00;;
13197;SDS011;6664;52.514;13.440;2022-11-14T17:56:08;20.60;;;13.27;;
13197;SDS011;6664;52.514;13.440;2022-11-14T17:59:00;23.73;;;13.37;;
13197;SDS011;6664;52.514;13.440;2022-11-14T18:01:46;24.60;;;13.30;;
13197;SDS011;6664;52.514;13.440;2022-11-14T18:04:34;22.00;;;12.67;;
13197;SDS011;6664;52.514;13.440;2022-11-14T18:07:23;28.47;;;14.50;;
13197;SDS011;6664;52.514;13.440;2022-11-14T18:10:16;31.50;;;15.67;;
13197;SDS011;6664;52.514;13.440;2022-11-14T18:13:05;26.83;;;14.40;;
13197;SDS011;6664;52.514;13.440;2022-11-14T18:15:53;23.90;;;13.53;;
13197;SDS011;6664;52.514;13.440;2022-11-14T18:18:38;26.80;;;14.50;;
13197;SDS011;6664;52.514;13.440;2022-11-14T18:21:27;20.77;;;12.80;;
13197;SDS011;6664;52.514;13.440;2022-11-14T18:24:12;20.37;;;12.60;;
13197;SDS011;6664;52.514;13.440;2022-11-14T18:26:58;22.33;;;13.07;;
13197;SDS011;6664;52.514;13.440;2022-11-14T18:29:47;18.50;;;11.70;;
13197;SDS011;6664;52.514;13.440;2022-11-14T18:32:35;26.83;;;13.77;;
13197;SDS011;6664;52.514;13.440;2022-11-14T18:35:21;30.87;;;14.60;;
13197;SDS011;6664;52.514;13.440;2022-11-14T18:38:10;23.27;;;14.40;;
13197;SDS011;6664;52.514;13.440;2022-11-14T18:40:56;18.00;;;12.53;;
13197;SDS011;6664;52.514;13.440;2022-11-14T18:43:43;29.13;;;14.60;;
13197;SDS011;6664;52.514;13.440;2022-11-14T18:46:29;23.20;;;13.10;;
13197;SDS011;6664;52.514;13.440;2022-11-14T18:49:21;22.27;;;13.70;;
13197;SDS011;6664;52.514;13.440;2022-11-14T18:52:07;26.00;;;15.27;;
13197;SDS011;6664;52.514;13.440;2022-11-14T18:55:03;26.20;;;13.60;;